createdAt,value
2023-05-25T00:00:04.929Z,15.70
2023-05-25T00:05:27.410Z,15.59
2023-05-25T00:10:29.580Z,15.51
2023-05-25T00:15:31.553Z,15.47
2023-05-25T00:20:34.333Z,15.44
2023-05-25T00:25:36.430Z,15.42
2023-05-25T00:30:38.425Z,15.40
2023-05-25T00:35:42.212Z,15.42
2023-05-25T00:40:45.446Z,15.46
2023-05-25T00:45:47.559Z,15.51
2023-05-25T00:50:54.527Z,15.57
2023-05-25T00:56:10.629Z,15.59
2023-05-25T01:01:14.882Z,15.60
2023-05-25T01:06:18.273Z,15.59
2023-05-25T01:11:27.613Z,15.57
2023-05-25T01:16:30.516Z,15.52
2023-05-25T01:21:49.608Z,15.48
2023-05-25T01:26:58.433Z,15.43
2023-05-25T01:32:03.054Z,15.38
2023-05-25T01:37:06.092Z,15.34
2023-05-25T01:42:08.068Z,15.28
2023-05-25T01:47:28.139Z,15.22
2023-05-25T01:52:38.288Z,15.16
2023-05-25T01:57:43.394Z,15.10
2023-05-25T02:02:47.576Z,15.04
2023-05-25T02:07:49.528Z,14.96
2023-05-25T02:12:51.489Z,14.88
2023-05-25T02:17:57.428Z,14.80
2023-05-25T02:22:59.445Z,14.74
2023-05-25T02:28:01.647Z,14.69
2023-05-25T02:33:03.663Z,14.66
2023-05-25T02:38:05.800Z,14.65
2023-05-25T02:43:07.876Z,14.64
2023-05-25T02:48:09.752Z,14.64
2023-05-25T02:53:12.035Z,14.63
2023-05-25T02:58:14.063Z,14.63
2023-05-25T03:03:16.231Z,14.64
2023-05-25T03:08:18.174Z,14.66
2023-05-25T03:13:20.171Z,14.68
2023-05-25T03:18:22.137Z,14.72
2023-05-25T03:23:24.213Z,14.78
2023-05-25T03:28:26.428Z,14.84
2023-05-25T03:33:28.382Z,14.92
2023-05-25T03:38:30.669Z,14.99
2023-05-25T03:43:32.462Z,15.06
2023-05-25T03:48:34.424Z,15.15
2023-05-25T03:53:36.297Z,15.24
2023-05-25T03:58:38.103Z,15.33
2023-05-25T04:03:40.492Z,15.40
2023-05-25T04:08:42.440Z,15.48
2023-05-25T04:13:44.420Z,15.58
2023-05-25T04:18:46.201Z,15.71
2023-05-25T04:23:48.172Z,15.84
2023-05-25T04:28:50.047Z,16.01
2023-05-25T04:33:52.135Z,16.19
2023-05-25T04:38:54.422Z,16.36
2023-05-25T04:49:08.294Z,16.69
2023-05-25T04:54:10.700Z,16.89
2023-05-25T04:59:12.676Z,17.12
2023-05-25T05:04:16.191Z,17.41
2023-05-25T05:09:18.179Z,17.95
2023-05-25T05:14:20.663Z,19.68
2023-05-25T05:19:23.260Z,21.85
2023-05-25T05:24:25.750Z,23.84
2023-05-25T05:29:28.565Z,25.47
2023-05-25T05:34:31.247Z,26.81
2023-05-25T05:39:33.120Z,28.11
2023-05-25T05:44:35.414Z,29.20
2023-05-25T05:49:38.824Z,30.21
2023-05-25T05:54:41.254Z,30.78
2023-05-25T05:59:43.599Z,31.23
2023-05-25T06:04:46.298Z,31.77
2023-05-25T06:09:48.277Z,32.33
2023-05-25T06:14:51.841Z,32.69
2023-05-25T06:19:53.821Z,33.16
2023-05-25T06:24:55.952Z,33.76
2023-05-25T06:29:58.047Z,34.20
2023-05-25T06:35:00.482Z,34.60
2023-05-25T06:40:02.870Z,35.12
2023-05-25T06:45:06.770Z,35.68
2023-05-25T06:50:09.888Z,35.89
2023-05-25T06:55:12.139Z,36.27
2023-05-25T07:00:15.975Z,36.53
2023-05-25T07:05:18.227Z,36.69
2023-05-25T07:10:20.233Z,37.19
2023-05-25T07:15:23.900Z,37.68
2023-05-25T07:20:27.151Z,38.03
2023-05-25T07:25:29.141Z,38.43
2023-05-25T07:30:31.230Z,38.78
2023-05-25T07:35:35.256Z,39.17
2023-05-25T07:40:37.328Z,39.15
2023-05-25T07:45:39.756Z,39.18
2023-05-25T07:50:41.691Z,39.26
2023-05-25T07:55:44.129Z,38.81
2023-05-25T08:00:49.036Z,36.93
2023-05-25T08:05:52.546Z,34.86
2023-05-25T08:10:54.538Z,33.31
2023-05-25T08:15:56.502Z,33.03
2023-05-25T08:20:58.379Z,34.75
2023-05-25T08:26:01.200Z,36.96
2023-05-25T08:31:04.001Z,38.26
2023-05-25T08:36:06.263Z,39.18
2023-05-25T08:41:08.651Z,39.70
2023-05-25T08:46:11.147Z,40.19
2023-05-25T08:51:15.984Z,40.17
2023-05-25T08:56:20.213Z,40.08
2023-05-25T09:01:27.333Z,40.69
2023-05-25T09:06:30.418Z,41.33
2023-05-25T09:11:39.308Z,41.91
2023-05-25T09:16:42.683Z,42.08
2023-05-25T09:21:44.558Z,41.49
2023-05-25T09:26:48.490Z,40.47
2023-05-25T09:31:50.756Z,39.20
2023-05-25T09:36:53.005Z,38.15
2023-05-25T09:41:55.240Z,36.81
2023-05-25T09:46:57.329Z,34.97
2023-05-25T09:52:00.329Z,33.53
2023-05-25T09:57:03.749Z,32.61
2023-05-25T10:02:06.238Z,31.99
2023-05-25T10:07:08.930Z,31.67
2023-05-25T10:12:11.634Z,32.32
2023-05-25T10:17:17.395Z,32.62
2023-05-25T10:22:26.240Z,32.33
2023-05-25T10:27:52.270Z,32.08
2023-05-25T10:32:56.792Z,31.76
2023-05-25T10:38:00.326Z,31.61
2023-05-25T10:43:02.427Z,31.60
2023-05-25T10:48:04.398Z,31.54
2023-05-25T10:53:11.820Z,31.48
2023-05-25T10:58:16.172Z,31.66
2023-05-25T11:03:20.363Z,31.42
2023-05-25T11:08:23.799Z,30.96
2023-05-25T11:13:34.301Z,30.53
2023-05-25T11:18:46.292Z,30.20
2023-05-25T11:23:58.418Z,29.92
2023-05-25T11:29:03.155Z,29.44
2023-05-25T11:34:07.146Z,29.14
2023-05-25T11:39:17.491Z,28.72
2023-05-25T11:44:33.227Z,28.47
2023-05-25T11:49:48.588Z,28.29
2023-05-25T11:54:53.789Z,28.04
2023-05-25T12:00:06.412Z,27.88
2023-05-25T12:05:11.050Z,27.84
2023-05-25T12:10:18.702Z,27.82
2023-05-25T12:15:24.131Z,27.74
2023-05-25T12:20:27.185Z,27.56
2023-05-25T12:25:42.321Z,27.51
2023-05-25T12:30:49.154Z,27.46
2023-05-25T12:35:53.050Z,27.47
2023-05-25T12:41:07.958Z,27.48
2023-05-25T12:46:11.282Z,27.45
2023-05-25T12:51:13.479Z,27.40
2023-05-25T12:56:15.499Z,27.44
2023-05-25T13:01:18.004Z,27.34
2023-05-25T13:06:20.590Z,27.15
2023-05-25T13:11:23.274Z,26.98
2023-05-25T13:16:26.252Z,26.88
2023-05-25T13:21:29.707Z,26.53
2023-05-25T13:26:31.982Z,26.33
2023-05-25T13:31:35.866Z,26.29
2023-05-25T13:36:38.496Z,26.24
2023-05-25T13:41:45.038Z,26.29
2023-05-25T13:46:48.303Z,26.30
2023-05-25T13:51:50.893Z,26.25
2023-05-25T13:56:52.981Z,26.50
2023-05-25T14:01:56.224Z,26.74
2023-05-25T14:06:59.084Z,26.76
2023-05-25T14:12:01.275Z,26.61
2023-05-25T14:17:05.604Z,26.37
2023-05-25T14:22:14.216Z,26.12
2023-05-25T14:27:20.624Z,25.90
2023-05-25T14:32:22.931Z,25.91
2023-05-25T14:37:25.852Z,25.84
2023-05-25T14:42:29.838Z,25.78
2023-05-25T14:47:32.048Z,25.79
2023-05-25T14:52:34.314Z,25.55
2023-05-25T14:57:36.392Z,25.28
2023-05-25T15:02:39.090Z,25.11
2023-05-25T15:07:46.468Z,24.89
2023-05-25T15:12:48.649Z,24.62
2023-05-25T15:17:50.965Z,24.31
2023-05-25T15:23:00.930Z,23.96
2023-05-25T15:28:04.719Z,23.58
2023-05-25T15:33:09.395Z,23.15
2023-05-25T15:38:11.431Z,22.70
2023-05-25T15:43:14.861Z,22.28
2023-05-25T15:48:17.793Z,22.01
2023-05-25T15:53:20.197Z,21.87
2023-05-25T15:58:22.182Z,21.76
2023-05-25T16:03:28.090Z,21.82
2023-05-25T16:08:31.356Z,22.00
2023-05-25T16:13:33.865Z,22.16
2023-05-25T16:18:36.768Z,22.18
2023-05-25T16:23:41.793Z,22.02
2023-05-25T16:28:44.245Z,21.79
2023-05-25T16:33:47.589Z,21.55
2023-05-25T16:38:50.801Z,21.33
2023-05-25T16:43:53.297Z,21.13
2023-05-25T16:48:55.685Z,20.89
2023-05-25T16:53:58.270Z,20.75
2023-05-25T16:59:00.357Z,20.69
2023-05-25T17:04:04.200Z,20.64
2023-05-25T17:09:06.971Z,20.58
2023-05-25T17:14:09.571Z,20.47
2023-05-25T17:19:14.553Z,20.39
2023-05-25T17:24:18.338Z,20.25
2023-05-25T17:29:20.523Z,20.05
2023-05-25T17:34:23.032Z,19.84
2023-05-25T17:39:26.041Z,19.68
2023-05-25T17:44:32.785Z,19.51
2023-05-25T17:49:34.703Z,19.34
2023-05-25T17:54:37.101Z,19.15
2023-05-25T17:59:39.485Z,18.93
2023-05-25T18:04:42.271Z,18.70
2023-05-25T18:09:44.147Z,18.49
2023-05-25T18:14:47.060Z,18.28
2023-05-25T18:19:49.776Z,18.09
2023-05-25T18:24:52.475Z,17.93
2023-05-25T18:29:55.239Z,17.79
2023-05-25T18:34:57.370Z,17.64
2023-05-25T18:39:59.574Z,17.48
2023-05-25T18:45:02.974Z,17.32
2023-05-25T18:50:06.473Z,17.16
2023-05-25T18:55:11.179Z,17.02
2023-05-25T19:00:14.257Z,16.88
2023-05-25T19:05:18.217Z,16.75
2023-05-25T19:10:20.854Z,16.62
2023-05-25T19:15:24.833Z,16.50
2023-05-25T19:20:28.000Z,16.38
2023-05-25T19:25:32.070Z,16.27
2023-05-25T19:30:36.113Z,16.18
2023-05-25T19:35:42.719Z,16.14
2023-05-25T19:40:45.479Z,16.11
2023-05-25T19:45:51.104Z,16.12
2023-05-25T19:50:54.060Z,16.14
2023-05-25T19:55:56.844Z,16.17
2023-05-25T20:00:59.969Z,16.19
2023-05-25T20:06:03.270Z,16.18
2023-05-25T20:11:06.269Z,16.16
2023-05-25T20:16:10.931Z,16.11
2023-05-25T20:21:14.434Z,16.03
2023-05-25T20:26:17.460Z,15.93
2023-05-25T20:31:20.583Z,15.81
2023-05-25T20:36:24.201Z,15.71
2023-05-25T20:41:26.571Z,15.60
2023-05-25T20:46:29.284Z,15.48
2023-05-25T20:51:32.356Z,15.38
2023-05-25T20:56:35.976Z,15.27
2023-05-25T21:01:38.403Z,15.16
2023-05-25T21:06:40.868Z,15.05
2023-05-25T21:11:43.039Z,14.93
2023-05-25T21:16:45.404Z,14.79
2023-05-25T21:21:47.920Z,14.65
2023-05-25T21:26:50.215Z,14.50
2023-05-25T21:31:52.311Z,14.33
2023-05-25T21:36:54.792Z,14.13
2023-05-25T21:41:58.444Z,13.95
2023-05-25T21:47:00.291Z,13.78
2023-05-25T21:52:02.370Z,13.64
2023-05-25T21:57:04.682Z,13.49
2023-05-25T22:02:06.753Z,13.35
2023-05-25T22:07:08.821Z,13.19
2023-05-25T22:12:12.385Z,13.01
2023-05-25T22:17:15.845Z,12.81
2023-05-25T22:22:17.834Z,12.64
2023-05-25T22:27:20.645Z,12.48
2023-05-25T22:32:22.778Z,12.35
2023-05-25T22:37:24.622Z,12.22
2023-05-25T22:42:26.600Z,12.11
2023-05-25T22:47:28.984Z,12.01
2023-05-25T22:52:31.078Z,11.93
2023-05-25T22:57:32.968Z,11.84
2023-05-25T23:02:35.082Z,11.75
2023-05-25T23:07:37.119Z,11.65
2023-05-25T23:12:39.209Z,11.57
2023-05-25T23:17:41.285Z,11.46
2023-05-25T23:22:43.371Z,11.31
2023-05-25T23:27:45.453Z,11.17
2023-05-25T23:32:47.469Z,11.06
2023-05-25T23:37:51.556Z,10.97
2023-05-25T23:42:53.434Z,10.87
2023-05-25T23:47:55.347Z,10.79
2023-05-25T23:52:57.498Z,10.72
2023-05-25T23:57:59.479Z,10.67
